sensor_id;sensor_type;location;lat;lon;timestamp;P1;durP1;ratioP1;P2;durP2;ratioP2
51556;SDS011;38766;53.194;5.532;2023-06-22T00:00:49;28.48;;;23.35;;
51556;SDS011;38766;53.194;5.532;2023-06-22T00:03:15;27.13;;;23.40;;
51556;SDS011;38766;53.194;5.532;2023-06-22T00:05:42;30.55;;;24.60;;
51556;SDS011;38766;53.194;5.532;2023-06-22T00:08:07;28.45;;;25.38;;
51556;SDS011;38766;53.194;5.532;2023-06-22T00:10:33;31.08;;;22.98;;
51556;SDS011;38766;53.194;5.532;2023-06-22T00:12:59;29.10;;;24.55;;
51556;SDS011;38766;53.194;5.532;2023-06-22T00:15:24;30.75;;;26.92;;
51556;SDS011;38766;53.194;5.532;2023-06-22T00:17:50;30.02;;;26.27;;
51556;SDS011;38766;53.194;5.532;2023-06-22T00:20:16;28.08;;;25.08;;
51556;SDS011;38766;53.194;5.532;2023-06-22T00:22:43;35.88;;;26.98;;
51556;SDS011;38766;53.194;5.532;2023-06-22T00:25:09;34.60;;;26.77;;
51556;SDS011;38766;53.194;5.532;2023-06-22T00:27:35;35.20;;;27.80;;
51556;SDS011;38766;53.194;5.532;2023-06-22T00:30:02;33.03;;;26.85;;
51556;SDS011;38766;53.194;5.532;2023-06-22T00:32:28;32.65;;;27.67;;
51556;SDS011;38766;53.194;5.532;2023-06-22T00:34:54;35.83;;;26.40;;
51556;SDS011;38766;53.194;5.532;2023-06-22T00:37:19;30.17;;;24.95;;
51556;SDS011;38766;53.194;5.532;2023-06-22T00:39:53;32.88;;;26.15;;
51556;SDS011;38766;53.194;5.532;2023-06-22T00:42:19;32.53;;;26.33;;
51556;SDS011;38766;53.194;5.532;2023-06-22T00:44:44;30.80;;;25.20;;
51556;SDS011;38766;53.194;5.532;2023-06-22T00:47:11;30.17;;;26.00;;
51556;SDS011;38766;53.194;5.532;2023-06-22T00:49:38;28.85;;;24.63;;
51556;SDS011;38766;53.194;5.532;2023-06-22T00:52:04;33.75;;;24.85;;
51556;SDS011;38766;53.194;5.532;2023-06-22T00:54:38;32.33;;;25.77;;
51556;SDS011;38766;53.194;5.532;2023-06-22T00:57:10;35.17;;;25.77;;
51556;SDS011;38766;53.194;5.532;2023-06-22T00:59:44;30.50;;;23.88;;
51556;SDS011;38766;53.194;5.532;2023-06-22T01:02:10;33.38;;;26.27;;
51556;SDS011;38766;53.194;5.532;2023-06-22T01:04:37;30.42;;;22.13;;
51556;SDS011;38766;53.194;5.532;2023-06-22T01:09:35;33.10;;;25.27;;
51556;SDS011;38766;53.194;5.532;2023-06-22T01:12:06;30.30;;;25.02;;
51556;SDS011;38766;53.194;5.532;2023-06-22T01:16:59;36.95;;;25.67;;
51556;SDS011;38766;53.194;5.532;2023-06-22T01:22:14;35.45;;;28.65;;
51556;SDS011;38766;53.194;5.532;2023-06-22T01:27:28;34.25;;;27.08;;
51556;SDS011;38766;53.194;5.532;2023-06-22T01:30:21;35.90;;;27.83;;
51556;SDS011;38766;53.194;5.532;2023-06-22T01:32:50;37.42;;;29.75;;
51556;SDS011;38766;53.194;5.532;2023-06-22T01:35:19;38.47;;;27.95;;
51556;SDS011;38766;53.194;5.532;2023-06-22T01:37:46;39.55;;;30.48;;
51556;SDS011;38766;53.194;5.532;2023-06-22T01:40:12;39.53;;;29.55;;
51556;SDS011;38766;53.194;5.532;2023-06-22T01:42:39;35.75;;;27.67;;
51556;SDS011;38766;53.194;5.532;2023-06-22T01:45:06;40.97;;;27.45;;
51556;SDS011;38766;53.194;5.532;2023-06-22T01:47:33;41.00;;;29.08;;
51556;SDS011;38766;53.194;5.532;2023-06-22T01:49:59;39.53;;;27.02;;
51556;SDS011;38766;53.194;5.532;2023-06-22T01:52:25;42.25;;;30.58;;
51556;SDS011;38766;53.194;5.532;2023-06-22T01:54:51;48.22;;;32.30;;
51556;SDS011;38766;53.194;5.532;2023-06-22T01:57:16;49.08;;;33.83;;
51556;SDS011;38766;53.194;5.532;2023-06-22T01:59:49;54.88;;;33.92;;
51556;SDS011;38766;53.194;5.532;2023-06-22T02:02:19;54.17;;;33.47;;
51556;SDS011;38766;53.194;5.532;2023-06-22T02:04:51;45.88;;;31.15;;
51556;SDS011;38766;53.194;5.532;2023-06-22T02:07:21;48.40;;;34.90;;
51556;SDS011;38766;53.194;5.532;2023-06-22T02:09:52;50.28;;;35.42;;
51556;SDS011;38766;53.194;5.532;2023-06-22T02:12:21;47.35;;;34.63;;
51556;SDS011;38766;53.194;5.532;2023-06-22T02:14:50;52.22;;;35.13;;
51556;SDS011;38766;53.194;5.532;2023-06-22T02:17:17;49.55;;;35.75;;
51556;SDS011;38766;53.194;5.532;2023-06-22T02:19:43;46.85;;;33.33;;
51556;SDS011;38766;53.194;5.532;2023-06-22T02:22:09;46.10;;;35.38;;
51556;SDS011;38766;53.194;5.532;2023-06-22T02:24:35;49.50;;;34.03;;
51556;SDS011;38766;53.194;5.532;2023-06-22T02:27:01;42.10;;;31.35;;
51556;SDS011;38766;53.194;5.532;2023-06-22T02:29:28;42.47;;;32.35;;
51556;SDS011;38766;53.194;5.532;2023-06-22T02:31:54;38.92;;;30.92;;
51556;SDS011;38766;53.194;5.532;2023-06-22T02:34:20;38.47;;;28.90;;
51556;SDS011;38766;53.194;5.532;2023-06-22T02:36:47;34.08;;;28.35;;
51556;SDS011;38766;53.194;5.532;2023-06-22T02:39:20;31.80;;;25.83;;
51556;SDS011;38766;53.194;5.532;2023-06-22T02:41:47;32.50;;;27.23;;
51556;SDS011;38766;53.194;5.532;2023-06-22T02:44:13;33.13;;;29.52;;
51556;SDS011;38766;53.194;5.532;2023-06-22T02:46:39;34.13;;;28.77;;
51556;SDS011;38766;53.194;5.532;2023-06-22T02:49:05;31.67;;;26.90;;
51556;SDS011;38766;53.194;5.532;2023-06-22T02:51:32;39.58;;;30.58;;
51556;SDS011;38766;53.194;5.532;2023-06-22T02:53:59;38.47;;;30.48;;
51556;SDS011;38766;53.194;5.532;2023-06-22T02:56:25;43.50;;;29.50;;
51556;SDS011;38766;53.194;5.532;2023-06-22T02:58:51;39.05;;;29.00;;
51556;SDS011;38766;53.194;5.532;2023-06-22T03:01:20;46.50;;;33.95;;
51556;SDS011;38766;53.194;5.532;2023-06-22T03:03:49;48.47;;;31.23;;
51556;SDS011;38766;53.194;5.532;2023-06-22T03:06:14;50.22;;;33.22;;
51556;SDS011;38766;53.194;5.532;2023-06-22T03:08:40;48.70;;;32.60;;
51556;SDS011;38766;53.194;5.532;2023-06-22T03:11:06;48.88;;;31.38;;
51556;SDS011;38766;53.194;5.532;2023-06-22T03:13:33;43.67;;;32.95;;
51556;SDS011;38766;53.194;5.532;2023-06-22T03:15:59;45.38;;;33.60;;
51556;SDS011;38766;53.194;5.532;2023-06-22T03:18:24;42.35;;;30.27;;
51556;SDS011;38766;53.194;5.532;2023-06-22T03:20:50;33.28;;;26.08;;
51556;SDS011;38766;53.194;5.532;2023-06-22T03:23:15;37.33;;;27.38;;
51556;SDS011;38766;53.194;5.532;2023-06-22T03:25:41;36.05;;;28.35;;
51556;SDS011;38766;53.194;5.532;2023-06-22T03:28:09;36.55;;;27.75;;
51556;SDS011;38766;53.194;5.532;2023-06-22T03:30:35;35.75;;;27.85;;
51556;SDS011;38766;53.194;5.532;2023-06-22T03:33:01;35.22;;;28.13;;
51556;SDS011;38766;53.194;5.532;2023-06-22T03:35:26;30.65;;;24.50;;
51556;SDS011;38766;53.194;5.532;2023-06-22T03:37:52;31.15;;;25.08;;
51556;SDS011;38766;53.194;5.532;2023-06-22T03:40:18;30.27;;;24.65;;
51556;SDS011;38766;53.194;5.532;2023-06-22T03:42:44;28.02;;;23.00;;
51556;SDS011;38766;53.194;5.532;2023-06-22T03:45:10;33.97;;;24.70;;
51556;SDS011;38766;53.194;5.532;2023-06-22T03:47:36;28.13;;;22.67;;
51556;SDS011;38766;53.194;5.532;2023-06-22T03:50:02;25.65;;;21.10;;
51556;SDS011;38766;53.194;5.532;2023-06-22T03:52:29;28.02;;;22.27;;
51556;SDS011;38766;53.194;5.532;2023-06-22T03:54:55;28.38;;;23.05;;
51556;SDS011;38766;53.194;5.532;2023-06-22T03:57:21;28.25;;;22.58;;
51556;SDS011;38766;53.194;5.532;2023-06-22T03:59:46;26.70;;;22.13;;
51556;SDS011;38766;53.194;5.532;2023-06-22T04:02:12;27.02;;;21.45;;
51556;SDS011;38766;53.194;5.532;2023-06-22T04:04:38;23.42;;;19.92;;
51556;SDS011;38766;53.194;5.532;2023-06-22T04:07:04;26.73;;;23.13;;
51556;SDS011;38766;53.194;5.532;2023-06-22T04:09:30;31.00;;;24.45;;
51556;SDS011;38766;53.194;5.532;2023-06-22T04:11:56;30.15;;;22.67;;
51556;SDS011;38766;53.194;5.532;2023-06-22T04:14:21;31.05;;;23.95;;
51556;SDS011;38766;53.194;5.532;2023-06-22T04:16:47;30.02;;;23.15;;
51556;SDS011;38766;53.194;5.532;2023-06-22T04:19:13;32.97;;;24.00;;
51556;SDS011;38766;53.194;5.532;2023-06-22T04:21:44;32.42;;;24.48;;
51556;SDS011;38766;53.194;5.532;2023-06-22T04:24:10;30.40;;;24.13;;
51556;SDS011;38766;53.194;5.532;2023-06-22T04:26:36;33.55;;;24.90;;
51556;SDS011;38766;53.194;5.532;2023-06-22T04:29:05;29.45;;;24.63;;
51556;SDS011;38766;53.194;5.532;2023-06-22T04:31:31;29.77;;;24.33;;
51556;SDS011;38766;53.194;5.532;2023-06-22T04:34:02;33.53;;;24.90;;
51556;SDS011;38766;53.194;5.532;2023-06-22T04:36:35;31.98;;;25.08;;
51556;SDS011;38766;53.194;5.532;2023-06-22T04:39:06;29.20;;;23.75;;
51556;SDS011;38766;53.194;5.532;2023-06-22T04:41:35;31.88;;;24.65;;
51556;SDS011;38766;53.194;5.532;2023-06-22T04:44:10;33.13;;;25.80;;
51556;SDS011;38766;53.194;5.532;2023-06-22T04:46:48;34.70;;;25.50;;
51556;SDS011;38766;53.194;5.532;2023-06-22T04:49:19;36.25;;;26.17;;
51556;SDS011;38766;53.194;5.532;2023-06-22T04:51:45;36.53;;;27.38;;
51556;SDS011;38766;53.194;5.532;2023-06-22T04:54:11;31.65;;;24.00;;
51556;SDS011;38766;53.194;5.532;2023-06-22T04:56:37;34.42;;;25.55;;
51556;SDS011;38766;53.194;5.532;2023-06-22T04:59:06;34.78;;;25.77;;
51556;SDS011;38766;53.194;5.532;2023-06-22T05:01:32;32.80;;;25.60;;
51556;SDS011;38766;53.194;5.532;2023-06-22T05:03:57;34.78;;;26.13;;
51556;SDS011;38766;53.194;5.532;2023-06-22T05:06:26;38.70;;;26.00;;
51556;SDS011;38766;53.194;5.532;2023-06-22T05:08:53;35.17;;;25.98;;
51556;SDS011;38766;53.194;5.532;2023-06-22T05:11:22;34.30;;;26.70;;
51556;SDS011;38766;53.194;5.532;2023-06-22T05:13:53;38.30;;;27.25;;
51556;SDS011;38766;53.194;5.532;2023-06-22T05:16:20;34.15;;;26.90;;
51556;SDS011;38766;53.194;5.532;2023-06-22T05:18:49;35.42;;;25.92;;
51556;SDS011;38766;53.194;5.532;2023-06-22T05:21:25;41.40;;;25.95;;
51556;SDS011;38766;53.194;5.532;2023-06-22T05:23:52;37.17;;;27.85;;
51556;SDS011;38766;53.194;5.532;2023-06-22T05:26:19;34.00;;;25.23;;
51556;SDS011;38766;53.194;5.532;2023-06-22T05:28:45;34.33;;;26.42;;
51556;SDS011;38766;53.194;5.532;2023-06-22T05:31:15;36.28;;;26.42;;
51556;SDS011;38766;53.194;5.532;2023-06-22T05:33:41;33.50;;;24.90;;
51556;SDS011;38766;53.194;5.532;2023-06-22T05:36:08;30.45;;;25.02;;
51556;SDS011;38766;53.194;5.532;2023-06-22T05:38:34;36.78;;;26.00;;
51556;SDS011;38766;53.194;5.532;2023-06-22T05:41:00;33.00;;;24.85;;
51556;SDS011;38766;53.194;5.532;2023-06-22T05:43:26;33.30;;;24.02;;
51556;SDS011;38766;53.194;5.532;2023-06-22T05:45:52;30.60;;;23.15;;
51556;SDS011;38766;53.194;5.532;2023-06-22T05:48:17;32.55;;;24.67;;
51556;SDS011;38766;53.194;5.532;2023-06-22T05:50:43;32.47;;;25.35;;
51556;SDS011;38766;53.194;5.532;2023-06-22T05:53:09;31.75;;;24.98;;
51556;SDS011;38766;53.194;5.532;2023-06-22T05:55:34;30.75;;;25.95;;
51556;SDS011;38766;53.194;5.532;2023-06-22T05:58:00;30.20;;;23.73;;
51556;SDS011;38766;53.194;5.532;2023-06-22T06:00:26;30.23;;;24.90;;
51556;SDS011;38766;53.194;5.532;2023-06-22T06:02:51;30.40;;;25.33;;
51556;SDS011;38766;53.194;5.532;2023-06-22T06:05:20;29.05;;;23.88;;
51556;SDS011;38766;53.194;5.532;2023-06-22T06:07:46;29.88;;;24.83;;
51556;SDS011;38766;53.194;5.532;2023-06-22T06:10:12;29.48;;;24.42;;
51556;SDS011;38766;53.194;5.532;2023-06-22T06:12:38;29.75;;;24.20;;
51556;SDS011;38766;53.194;5.532;2023-06-22T06:15:04;27.35;;;24.45;;
51556;SDS011;38766;53.194;5.532;2023-06-22T06:17:30;30.95;;;25.35;;
51556;SDS011;38766;53.194;5.532;2023-06-22T06:19:56;26.83;;;22.80;;
51556;SDS011;38766;53.194;5.532;2023-06-22T06:22:22;29.30;;;25.30;;
51556;SDS011;38766;53.194;5.532;2023-06-22T06:24:48;28.05;;;24.77;;
51556;SDS011;38766;53.194;5.532;2023-06-22T06:27:14;28.50;;;25.42;;
51556;SDS011;38766;53.194;5.532;2023-06-22T06:29:42;26.50;;;22.52;;
51556;SDS011;38766;53.194;5.532;2023-06-22T06:32:10;28.33;;;24.50;;
51556;SDS011;38766;53.194;5.532;2023-06-22T06:34:37;24.63;;;21.88;;
51556;SDS011;38766;53.194;5.532;2023-06-22T06:37:03;26.70;;;22.83;;
51556;SDS011;38766;53.194;5.532;2023-06-22T06:39:28;26.27;;;23.50;;
51556;SDS011;38766;53.194;5.532;2023-06-22T06:41:54;25.48;;;22.55;;
51556;SDS011;38766;53.194;5.532;2023-06-22T06:44:20;26.80;;;23.13;;
51556;SDS011;38766;53.194;5.532;2023-06-22T06:46:46;26.60;;;22.35;;
51556;SDS011;38766;53.194;5.532;2023-06-22T06:49:12;27.65;;;23.45;;
51556;SDS011;38766;53.194;5.532;2023-06-22T06:51:38;24.17;;;21.40;;
51556;SDS011;38766;53.194;5.532;2023-06-22T06:54:04;23.58;;;21.08;;
51556;SDS011;38766;53.194;5.532;2023-06-22T06:56:29;24.90;;;21.35;;
51556;SDS011;38766;53.194;5.532;2023-06-22T06:58:55;24.20;;;21.42;;
51556;SDS011;38766;53.194;5.532;2023-06-22T07:01:20;24.85;;;20.45;;
51556;SDS011;38766;53.194;5.532;2023-06-22T07:03:46;22.88;;;19.85;;
51556;SDS011;38766;53.194;5.532;2023-06-22T07:06:13;24.42;;;19.33;;
51556;SDS011;38766;53.194;5.532;2023-06-22T07:08:38;21.60;;;18.85;;
51556;SDS011;38766;53.194;5.532;2023-06-22T07:11:05;22.02;;;18.85;;
51556;SDS011;38766;53.194;5.532;2023-06-22T07:13:30;21.85;;;17.35;;
51556;SDS011;38766;53.194;5.532;2023-06-22T07:15:56;20.13;;;17.48;;
51556;SDS011;38766;53.194;5.532;2023-06-22T07:18:22;20.48;;;16.85;;
51556;SDS011;38766;53.194;5.532;2023-06-22T07:20:48;18.45;;;15.43;;
51556;SDS011;38766;53.194;5.532;2023-06-22T07:23:14;18.45;;;15.45;;
51556;SDS011;38766;53.194;5.532;2023-06-22T07:25:39;16.38;;;14.68;;
51556;SDS011;38766;53.194;5.532;2023-06-22T07:28:06;16.60;;;14.75;;
51556;SDS011;38766;53.194;5.532;2023-06-22T07:30:33;17.48;;;14.32;;
51556;SDS011;38766;53.194;5.532;2023-06-22T07:32:59;18.85;;;15.48;;
51556;SDS011;38766;53.194;5.532;2023-06-22T07:35:29;16.40;;;13.68;;
51556;SDS011;38766;53.194;5.532;2023-06-22T07:37:55;18.80;;;14.60;;
51556;SDS011;38766;53.194;5.532;2023-06-22T07:40:21;14.20;;;12.73;;
51556;SDS011;38766;53.194;5.532;2023-06-22T07:42:50;17.48;;;13.43;;
51556;SDS011;38766;53.194;5.532;2023-06-22T07:45:17;16.00;;;13.05;;
51556;SDS011;38766;53.194;5.532;2023-06-22T07:47:43;15.70;;;13.23;;
51556;SDS011;38766;53.194;5.532;2023-06-22T07:50:09;13.80;;;11.73;;
51556;SDS011;38766;53.194;5.532;2023-06-22T07:52:35;14.75;;;11.98;;
51556;SDS011;38766;53.194;5.532;2023-06-22T07:55:01;12.55;;;11.25;;
51556;SDS011;38766;53.194;5.532;2023-06-22T07:57:27;12.48;;;11.18;;
51556;SDS011;38766;53.194;5.532;2023-06-22T08:00:02;12.48;;;10.68;;
51556;SDS011;38766;53.194;5.532;2023-06-22T08:02:37;11.75;;;9.52;;
51556;SDS011;38766;53.194;5.532;2023-06-22T08:05:04;11.85;;;9.35;;
51556;SDS011;38766;53.194;5.532;2023-06-22T08:07:32;10.23;;;8.98;;
51556;SDS011;38766;53.194;5.532;2023-06-22T08:09:58;11.52;;;9.70;;
51556;SDS011;38766;53.194;5.532;2023-06-22T08:12:24;11.65;;;9.77;;
51556;SDS011;38766;53.194;5.532;2023-06-22T08:14:49;10.30;;;7.90;;
51556;SDS011;38766;53.194;5.532;2023-06-22T08:17:15;9.40;;;8.40;;
51556;SDS011;38766;53.194;5.532;2023-06-22T08:19:41;11.02;;;9.63;;
51556;SDS011;38766;53.194;5.532;2023-06-22T08:22:06;10.30;;;9.20;;
51556;SDS011;38766;53.194;5.532;2023-06-22T08:24:32;9.82;;;8.13;;
51556;SDS011;38766;53.194;5.532;2023-06-22T08:26:58;10.35;;;8.75;;
51556;SDS011;38766;53.194;5.532;2023-06-22T08:29:24;12.40;;;8.80;;
51556;SDS011;38766;53.194;5.532;2023-06-22T08:31:49;11.95;;;9.95;;
51556;SDS011;38766;53.194;5.532;2023-06-22T08:34:15;10.90;;;9.10;;
51556;SDS011;38766;53.194;5.532;2023-06-22T08:36:41;10.43;;;9.25;;
51556;SDS011;38766;53.194;5.532;2023-06-22T08:39:10;12.82;;;11.57;;
51556;SDS011;38766;53.194;5.532;2023-06-22T08:41:35;10.45;;;9.45;;
51556;SDS011;38766;53.194;5.532;2023-06-22T08:44:01;11.20;;;9.68;;
51556;SDS011;38766;53.194;5.532;2023-06-22T08:46:27;11.50;;;10.32;;
51556;SDS011;38766;53.194;5.532;2023-06-22T08:48:57;11.73;;;9.45;;
51556;SDS011;38766;53.194;5.532;2023-06-22T08:51:26;12.50;;;9.70;;
51556;SDS011;38766;53.194;5.532;2023-06-22T08:53:52;12.70;;;10.30;;
51556;SDS011;38766;53.194;5.532;2023-06-22T08:56:17;11.25;;;10.07;;
51556;SDS011;38766;53.194;5.532;2023-06-22T08:58:44;13.77;;;10.88;;
51556;SDS011;38766;53.194;5.532;2023-06-22T09:01:09;11.35;;;10.10;;
51556;SDS011;38766;53.194;5.532;2023-06-22T09:03:35;13.20;;;11.80;;
51556;SDS011;38766;53.194;5.532;2023-06-22T09:06:02;11.13;;;9.75;;
51556;SDS011;38766;53.194;5.532;2023-06-22T09:08:28;11.77;;;10.32;;
51556;SDS011;38766;53.194;5.532;2023-06-22T09:10:54;10.65;;;9.10;;
51556;SDS011;38766;53.194;5.532;2023-06-22T09:13:19;12.27;;;10.68;;
51556;SDS011;38766;53.194;5.532;2023-06-22T09:15:45;11.00;;;9.82;;
51556;SDS011;38766;53.194;5.532;2023-06-22T09:18:11;13.82;;;9.80;;
51556;SDS011;38766;53.194;5.532;2023-06-22T09:20:36;11.40;;;10.02;;
51556;SDS011;38766;53.194;5.532;2023-06-22T09:23:02;14.85;;;10.60;;
51556;SDS011;38766;53.194;5.532;2023-06-22T09:25:28;11.00;;;9.27;;
51556;SDS011;38766;53.194;5.532;2023-06-22T09:27:53;10.32;;;7.75;;
51556;SDS011;38766;53.194;5.532;2023-06-22T09:30:19;9.75;;;8.75;;
51556;SDS011;38766;53.194;5.532;2023-06-22T09:32:45;11.55;;;8.43;;
51556;SDS011;38766;53.194;5.532;2023-06-22T09:35:11;7.95;;;6.85;;
51556;SDS011;38766;53.194;5.532;2023-06-22T09:37:38;10.90;;;7.60;;
51556;SDS011;38766;53.194;5.532;2023-06-22T09:40:05;9.05;;;7.38;;
51556;SDS011;38766;53.194;5.532;2023-06-22T09:42:34;7.30;;;6.50;;
51556;SDS011;38766;53.194;5.532;2023-06-22T09:45:00;8.52;;;6.78;;
51556;SDS011;38766;53.194;5.532;2023-06-22T09:47:26;9.30;;;7.53;;
51556;SDS011;38766;53.194;5.532;2023-06-22T09:49:53;8.25;;;6.75;;
51556;SDS011;38766;53.194;5.532;2023-06-22T09:52:20;7.57;;;6.70;;
51556;SDS011;38766;53.194;5.532;2023-06-22T09:54:46;6.45;;;5.53;;
51556;SDS011;38766;53.194;5.532;2023-06-22T09:57:12;7.75;;;6.53;;
51556;SDS011;38766;53.194;5.532;2023-06-22T09:59:38;8.13;;;6.32;;
51556;SDS011;38766;53.194;5.532;2023-06-22T10:02:05;9.45;;;6.25;;
51556;SDS011;38766;53.194;5.532;2023-06-22T10:04:31;7.20;;;6.30;;
51556;SDS011;38766;53.194;5.532;2023-06-22T10:06:58;7.95;;;6.20;;
51556;SDS011;38766;53.194;5.532;2023-06-22T10:09:23;7.88;;;6.10;;
51556;SDS011;38766;53.194;5.532;2023-06-22T10:11:49;7.53;;;6.25;;
51556;SDS011;38766;53.194;5.532;2023-06-22T10:14:14;9.05;;;6.78;;
51556;SDS011;38766;53.194;5.532;2023-06-22T10:16:40;8.05;;;6.55;;
51556;SDS011;38766;53.194;5.532;2023-06-22T10:19:06;8.98;;;5.97;;
51556;SDS011;38766;53.194;5.532;2023-06-22T10:21:32;8.57;;;6.38;;
51556;SDS011;38766;53.194;5.532;2023-06-22T10:23:58;8.25;;;6.05;;
51556;SDS011;38766;53.194;5.532;2023-06-22T10:26:26;8.25;;;5.60;;
51556;SDS011;38766;53.194;5.532;2023-06-22T10:28:54;5.53;;;4.95;;
51556;SDS011;38766;53.194;5.532;2023-06-22T10:31:19;7.13;;;6.10;;
51556;SDS011;38766;53.194;5.532;2023-06-22T10:33:45;7.72;;;6.32;;
51556;SDS011;38766;53.194;5.532;2023-06-22T10:36:11;7.22;;;6.43;;
51556;SDS011;38766;53.194;5.532;2023-06-22T10:38:36;7.70;;;6.50;;
51556;SDS011;38766;53.194;5.532;2023-06-22T10:41:02;8.93;;;5.97;;
51556;SDS011;38766;53.194;5.532;2023-06-22T10:43:28;7.40;;;6.38;;
51556;SDS011;38766;53.194;5.532;2023-06-22T10:45:53;8.70;;;7.68;;
51556;SDS011;38766;53.194;5.532;2023-06-22T10:48:19;9.80;;;7.45;;
51556;SDS011;38766;53.194;5.532;2023-06-22T10:50:44;7.22;;;6.43;;
51556;SDS011;38766;53.194;5.532;2023-06-22T10:53:11;7.32;;;6.25;;
51556;SDS011;38766;53.194;5.532;2023-06-22T10:55:37;7.85;;;5.60;;
51556;SDS011;38766;53.194;5.532;2023-06-22T10:58:02;8.93;;;6.22;;
51556;SDS011;38766;53.194;5.532;2023-06-22T11:00:28;8.02;;;7.20;;
51556;SDS011;38766;53.194;5.532;2023-06-22T11:02:53;9.75;;;8.10;;
51556;SDS011;38766;53.194;5.532;2023-06-22T11:05:19;7.97;;;7.07;;
51556;SDS011;38766;53.194;5.532;2023-06-22T11:07:45;8.25;;;6.43;;
51556;SDS011;38766;53.194;5.532;2023-06-22T11:10:11;9.70;;;6.55;;
51556;SDS011;38766;53.194;5.532;2023-06-22T11:12:38;7.88;;;6.65;;
51556;SDS011;38766;53.194;5.532;2023-06-22T11:15:04;6.72;;;6.03;;
51556;SDS011;38766;53.194;5.532;2023-06-22T11:17:30;6.50;;;5.47;;
51556;SDS011;38766;53.194;5.532;2023-06-22T11:19:55;6.22;;;4.85;;
51556;SDS011;38766;53.194;5.532;2023-06-22T11:22:21;6.60;;;5.30;;
51556;SDS011;38766;53.194;5.532;2023-06-22T11:24:46;6.43;;;5.68;;
51556;SDS011;38766;53.194;5.532;2023-06-22T11:27:12;6.53;;;5.47;;
51556;SDS011;38766;53.194;5.532;2023-06-22T11:29:38;10.13;;;6.60;;
51556;SDS011;38766;53.194;5.532;2023-06-22T11:32:05;8.38;;;6.90;;
51556;SDS011;38766;53.194;5.532;2023-06-22T11:34:32;8.43;;;6.88;;
51556;SDS011;38766;53.194;5.532;2023-06-22T11:36:57;7.90;;;5.82;;
51556;SDS011;38766;53.194;5.532;2023-06-22T11:39:23;9.35;;;6.07;;
51556;SDS011;38766;53.194;5.532;2023-06-22T11:41:49;7.90;;;6.78;;
51556;SDS011;38766;53.194;5.532;2023-06-22T11:44:14;8.77;;;7.55;;
51556;SDS011;38766;53.194;5.532;2023-06-22T11:46:40;8.57;;;7.18;;
51556;SDS011;38766;53.194;5.532;2023-06-22T11:49:06;6.70;;;6.00;;
51556;SDS011;38766;53.194;5.532;2023-06-22T11:51:31;9.15;;;7.00;;
51556;SDS011;38766;53.194;5.532;2023-06-22T11:53:57;9.27;;;7.13;;
51556;SDS011;38766;53.194;5.532;2023-06-22T11:56:23;8.95;;;7.13;;
51556;SDS011;38766;53.194;5.532;2023-06-22T11:58:49;9.23;;;6.57;;
51556;SDS011;38766;53.194;5.532;2023-06-22T12:01:15;8.07;;;6.32;;
51556;SDS011;38766;53.194;5.532;2023-06-22T12:03:40;8.52;;;7.00;;
51556;SDS011;38766;53.194;5.532;2023-06-22T12:06:08;7.78;;;5.70;;
51556;SDS011;38766;53.194;5.532;2023-06-22T12:08:34;7.07;;;6.00;;
51556;SDS011;38766;53.194;5.532;2023-06-22T12:11:00;5.75;;;5.20;;
51556;SDS011;38766;53.194;5.532;2023-06-22T12:13:25;6.00;;;5.38;;
51556;SDS011;38766;53.194;5.532;2023-06-22T12:15:51;5.90;;;4.95;;
51556;SDS011;38766;53.194;5.532;2023-06-22T12:18:17;8.30;;;5.78;;
51556;SDS011;38766;53.194;5.532;2023-06-22T12:20:45;5.03;;;4.50;;
51556;SDS011;38766;53.194;5.532;2023-06-22T12:23:11;7.97;;;4.57;;
51556;SDS011;38766;53.194;5.532;2023-06-22T12:25:37;5.45;;;4.63;;
51556;SDS011;38766;53.194;5.532;2023-06-22T12:28:03;5.13;;;4.63;;
51556;SDS011;38766;53.194;5.532;2023-06-22T12:30:29;6.82;;;4.50;;
51556;SDS011;38766;53.194;5.532;2023-06-22T12:32:55;4.45;;;3.88;;
51556;SDS011;38766;53.194;5.532;2023-06-22T12:35:21;4.90;;;3.75;;
51556;SDS011;38766;53.194;5.532;2023-06-22T12:37:47;6.50;;;4.00;;
51556;SDS011;38766;53.194;5.532;2023-06-22T12:40:12;4.55;;;4.03;;
51556;SDS011;38766;53.194;5.532;2023-06-22T12:42:38;5.75;;;3.55;;
51556;SDS011;38766;53.194;5.532;2023-06-22T12:45:04;6.10;;;4.10;;
51556;SDS011;38766;53.194;5.532;2023-06-22T12:47:30;4.15;;;3.60;;
51556;SDS011;38766;53.194;5.532;2023-06-22T12:49:59;4.13;;;3.10;;
51556;SDS011;38766;53.194;5.532;2023-06-22T12:52:25;4.15;;;3.00;;
51556;SDS011;38766;53.194;5.532;2023-06-22T12:54:51;5.13;;;3.42;;
51556;SDS011;38766;53.194;5.532;2023-06-22T12:57:17;3.10;;;2.80;;
51556;SDS011;38766;53.194;5.532;2023-06-22T12:59:44;3.75;;;2.72;;
51556;SDS011;38766;53.194;5.532;2023-06-22T13:02:10;5.22;;;3.15;;
51556;SDS011;38766;53.194;5.532;2023-06-22T13:04:36;2.70;;;2.47;;
51556;SDS011;38766;53.194;5.532;2023-06-22T13:07:02;2.63;;;2.40;;
51556;SDS011;38766;53.194;5.532;2023-06-22T13:09:27;3.08;;;2.40;;
51556;SDS011;38766;53.194;5.532;2023-06-22T13:11:53;5.25;;;2.50;;
51556;SDS011;38766;53.194;5.532;2023-06-22T13:14:18;3.15;;;2.25;;
51556;SDS011;38766;53.194;5.532;2023-06-22T13:16:44;2.33;;;2.10;;
51556;SDS011;38766;53.194;5.532;2023-06-22T13:19:10;3.03;;;2.30;;
51556;SDS011;38766;53.194;5.532;2023-06-22T13:21:35;3.28;;;2.20;;
51556;SDS011;38766;53.194;5.532;2023-06-22T13:24:01;3.47;;;1.98;;
51556;SDS011;38766;53.194;5.532;2023-06-22T13:26:27;1.70;;;1.60;;
51556;SDS011;38766;53.194;5.532;2023-06-22T13:28:53;3.60;;;1.98;;
51556;SDS011;38766;53.194;5.532;2023-06-22T13:31:19;3.63;;;2.20;;
51556;SDS011;38766;53.194;5.532;2023-06-22T13:33:45;2.28;;;1.60;;
51556;SDS011;38766;53.194;5.532;2023-06-22T13:36:13;3.13;;;2.08;;
51556;SDS011;38766;53.194;5.532;2023-06-22T13:38:38;4.03;;;1.88;;
51556;SDS011;38766;53.194;5.532;2023-06-22T13:41:04;1.90;;;1.50;;
51556;SDS011;38766;53.194;5.532;2023-06-22T13:43:30;2.83;;;1.83;;
51556;SDS011;38766;53.194;5.532;2023-06-22T13:45:56;1.73;;;1.63;;
51556;SDS011;38766;53.194;5.532;2023-06-22T13:48:22;1.85;;;1.50;;
51556;SDS011;38766;53.194;5.532;2023-06-22T13:50:48;1.98;;;1.73;;
51556;SDS011;38766;53.194;5.532;2023-06-22T13:53:14;2.15;;;1.85;;
51556;SDS011;38766;53.194;5.532;2023-06-22T13:55:40;2.20;;;1.50;;
51556;SDS011;38766;53.194;5.532;2023-06-22T13:58:06;2.05;;;1.70;;
51556;SDS011;38766;53.194;5.532;2023-06-22T14:00:31;1.65;;;1.40;;
51556;SDS011;38766;53.194;5.532;2023-06-22T14:02:57;1.65;;;1.55;;
51556;SDS011;38766;53.194;5.532;2023-06-22T14:05:23;2.08;;;1.50;;
51556;SDS011;38766;53.194;5.532;2023-06-22T14:07:48;2.22;;;1.70;;
51556;SDS011;38766;53.194;5.532;2023-06-22T14:10:14;3.50;;;1.60;;
51556;SDS011;38766;53.194;5.532;2023-06-22T14:12:40;2.10;;;1.48;;
51556;SDS011;38766;53.194;5.532;2023-06-22T14:15:05;1.40;;;1.30;;
51556;SDS011;38766;53.194;5.532;2023-06-22T14:17:31;3.97;;;2.00;;
51556;SDS011;38766;53.194;5.532;2023-06-22T14:19:57;3.58;;;1.50;;
51556;SDS011;38766;53.194;5.532;2023-06-22T14:22:23;1.70;;;1.60;;
51556;SDS011;38766;53.194;5.532;2023-06-22T14:24:49;4.18;;;1.70;;
51556;SDS011;38766;53.194;5.532;2023-06-22T14:27:15;1.92;;;1.52;;
51556;SDS011;38766;53.194;5.532;2023-06-22T14:29:41;1.92;;;1.80;;
51556;SDS011;38766;53.194;5.532;2023-06-22T14:32:07;2.67;;;2.13;;
51556;SDS011;38766;53.194;5.532;2023-06-22T14:34:34;2.75;;;1.75;;
51556;SDS011;38766;53.194;5.532;2023-06-22T14:37:01;2.30;;;1.85;;